sensor_id;sensor_type;location;lat;lon;timestamp;pressure;altitude;pressure_sealevel;temperature;humidity
49451;BME280;35336;48.400;10.886;2024-03-02T00:00:11;95164.13;;;5.37;100.00
49451;BME280;35336;48.400;10.886;2024-03-02T00:00:26;95188.78;;;5.51;100.00
49451;BME280;35336;48.400;10.886;2024-03-02T00:00:42;95185.34;;;5.51;100.00
49451;BME280;35336;48.400;10.886;2024-03-02T00:00:57;95183.06;;;5.48;100.00
49451;BME280;35336;48.400;10.886;2024-03-02T00:01:12;95183.72;;;5.50;100.00
49451;BME280;35336;48.400;10.886;2024-03-02T00:01:30;95191.44;;;5.51;100.00
49451;BME280;35336;48.400;10.886;2024-03-02T00:01:45;95190.25;;;5.54;100.00
49451;BME280;35336;48.400;10.886;2024-03-02T00:02:01;95185.16;;;5.52;100.00
49451;BME280;35336;48.400;10.886;2024-03-02T00:02:19;95191.28;;;5.53;100.00
49451;BME280;35336;48.400;10.886;2024-03-02T00:02:47;95183.34;;;5.53;100.00
49451;BME280;35336;48.400;10.886;2024-03-02T00:03:03;95186.34;;;5.50;100.00
49451;BME280;35336;48.400;10.886;2024-03-02T00:03:19;95167.19;;;5.41;100.00
49451;BME280;35336;48.400;10.886;2024-03-02T00:03:34;95185.16;;;5.52;100.00
49451;BME280;35336;48.400;10.886;2024-03-02T00:03:51;95186.78;;;5.53;100.00
49451;BME280;35336;48.400;10.886;2024-03-02T00:04:07;95184.34;;;5.52;100.00
49451;BME280;35336;48.400;10.886;2024-03-02T00:04:25;95163.47;;;5.35;100.00
49451;BME280;35336;48.400;10.886;2024-03-02T00:04:44;95173.53;;;5.47;100.00
49451;BME280;35336;48.400;10.886;2024-03-02T00:04:59;95174.91;;;5.43;100.00
49451;BME280;35336;48.400;10.886;2024-03-02T00:05:17;95189.63;;;5.52;100.00
49451;BME280;35336;48.400;10.886;2024-03-02T00:05:35;95182.72;;;5.51;100.00
49451;BME280;35336;48.400;10.886;2024-03-02T00:05:51;95182.91;;;5.49;100.00
49451;BME280;35336;48.400;10.886;2024-03-02T00:06:06;95187.34;;;5.49;100.00
49451;BME280;35336;48.400;10.886;2024-03-02T00:06:21;95170.84;;;5.40;100.00
49451;BME280;35336;48.400;10.886;2024-03-02T00:06:39;95185.34;;;5.51;100.00
49451;BME280;35336;48.400;10.886;2024-03-02T00:06:55;95173.28;;;5.41;100.00
49451;BME280;35336;48.400;10.886;2024-03-02T00:07:14;95180.19;;;5.43;100.00
49451;BME280;35336;48.400;10.886;2024-03-02T00:07:29;95165.25;;;5.28;100.00
49451;BME280;35336;48.400;10.886;2024-03-02T00:07:47;95187.75;;;5.46;100.00
49451;BME280;35336;48.400;10.886;2024-03-02T00:08:04;95188.38;;;5.48;100.00
49451;BME280;35336;48.400;10.886;2024-03-02T00:08:23;95181.47;;;5.47;100.00
49451;BME280;35336;48.400;10.886;2024-03-02T00:08:41;95188.38;;;5.48;100.00
49451;BME280;35336;48.400;10.886;2024-03-02T00:08:58;95184.47;;;5.44;100.00
49451;BME280;35336;48.400;10.886;2024-03-02T00:09:14;95188.38;;;5.48;100.00
49451;BME280;35336;48.400;10.886;2024-03-02T00:09:30;95184.91;;;5.47;100.00
49451;BME280;35336;48.400;10.886;2024-03-02T00:09:45;95172.25;;;5.36;100.00
49451;BME280;35336;48.400;10.886;2024-03-02T00:10:00;95188.56;;;5.46;100.00
49451;BME280;35336;48.400;10.886;2024-03-02T00:10:25;95192.84;;;5.47;100.00
49451;BME280;35336;48.400;10.886;2024-03-02T00:10:44;95181.47;;;5.47;100.00
49451;BME280;35336;48.400;10.886;2024-03-02T00:11:00;95185.91;;;5.46;100.00
49451;BME280;35336;48.400;10.886;2024-03-02T00:11:16;95181.47;;;5.47;100.00
49451;BME280;35336;48.400;10.886;2024-03-02T00:11:34;95185.91;;;5.46;100.00
49451;BME280;35336;48.400;10.886;2024-03-02T00:11:52;95180.63;;;5.46;100.00
49451;BME280;35336;48.400;10.886;2024-03-02T00:12:07;95185.13;;;5.46;100.00
49451;BME280;35336;48.400;10.886;2024-03-02T00:12:23;95193.06;;;5.46;100.00
49451;BME280;35336;48.400;10.886;2024-03-02T00:12:39;95185.91;;;5.46;100.00
49451;BME280;35336;48.400;10.886;2024-03-02T00:12:55;95192.03;;;5.47;100.00
49451;BME280;35336;48.400;10.886;2024-03-02T00:13:12;95187.56;;;5.47;100.00
49451;BME280;35336;48.400;10.886;2024-03-02T00:13:30;95186.75;;;5.47;100.00
49451;BME280;35336;48.400;10.886;2024-03-02T00:13:46;95185.91;;;5.46;100.00
49451;BME280;35336;48.400;10.886;2024-03-02T00:14:01;95186.75;;;5.47;100.00
49451;BME280;35336;48.400;10.886;2024-03-02T00:14:16;95187.13;;;5.44;100.00
49451;BME280;35336;48.400;10.886;2024-03-02T00:14:32;95178.75;;;5.40;100.00
49451;BME280;35336;48.400;10.886;2024-03-02T00:14:47;95186.56;;;5.48;100.00
49451;BME280;35336;48.400;10.886;2024-03-02T00:15:48;95186.34;;;5.50;100.00
49451;BME280;35336;48.400;10.886;2024-03-02T00:16:04;95188.00;;;5.51;100.00
49451;BME280;35336;48.400;10.886;2024-03-02T00:16:19;95185.13;;;5.46;100.00
49451;BME280;35336;48.400;10.886;2024-03-02T00:16:34;95155.53;;;5.29;100.00
49451;BME280;35336;48.400;10.886;2024-03-02T00:16:51;95164.75;;;5.39;100.00
49451;BME280;35336;48.400;10.886;2024-03-02T00:17:17;95178.00;;;5.46;100.00
49451;BME280;35336;48.400;10.886;2024-03-02T00:17:41;95182.28;;;5.47;100.00
49451;BME280;35336;48.400;10.886;2024-03-02T00:17:56;95183.06;;;5.48;100.00
49451;BME280;35336;48.400;10.886;2024-03-02T00:18:24;95183.06;;;5.48;100.00
49451;BME280;35336;48.400;10.886;2024-03-02T00:18:39;95177.34;;;5.44;100.00
49451;BME280;35336;48.400;10.886;2024-03-02T00:18:55;95185.72;;;5.48;100.00
49451;BME280;35336;48.400;10.886;2024-03-02T00:19:11;95187.56;;;5.47;100.00
49451;BME280;35336;48.400;10.886;2024-03-02T00:19:26;95187.56;;;5.47;100.00
49451;BME280;35336;48.400;10.886;2024-03-02T00:19:42;95188.75;;;5.45;100.00
49451;BME280;35336;48.400;10.886;2024-03-02T00:19:57;95187.75;;;5.46;100.00
49451;BME280;35336;48.400;10.886;2024-03-02T00:20:18;95186.75;;;5.47;100.00
49451;BME280;35336;48.400;10.886;2024-03-02T00:20:39;95174.06;;;5.35;100.00
49451;BME280;35336;48.400;10.886;2024-03-02T00:20:58;95192.22;;;5.45;100.00
49451;BME280;35336;48.400;10.886;2024-03-02T00:21:13;95187.13;;;5.44;100.00
49451;BME280;35336;48.400;10.886;2024-03-02T00:21:30;95188.75;;;5.45;100.00
49451;BME280;35336;48.400;10.886;2024-03-02T00:21:46;95187.75;;;5.46;100.00
49451;BME280;35336;48.400;10.886;2024-03-02T00:22:01;95187.75;;;5.46;100.00
49451;BME280;35336;48.400;10.886;2024-03-02T00:22:17;95182.66;;;5.44;100.00
49451;BME280;35336;48.400;10.886;2024-03-02T00:22:35;95187.75;;;5.46;100.00
49451;BME280;35336;48.400;10.886;2024-03-02T00:22:50;95185.13;;;5.46;100.00
49451;BME280;35336;48.400;10.886;2024-03-02T00:23:07;95187.75;;;5.46;100.00
49451;BME280;35336;48.400;10.886;2024-03-02T00:23:24;95189.78;;;5.44;100.00
49451;BME280;35336;48.400;10.886;2024-03-02T00:23:42;95194.06;;;5.45;100.00
49451;BME280;35336;48.400;10.886;2024-03-02T00:23:57;95190.41;;;5.46;100.00
49451;BME280;35336;48.400;10.886;2024-03-02T00:24:21;95191.22;;;5.46;100.00
49451;BME280;35336;48.400;10.886;2024-03-02T00:24:37;95190.41;;;5.46;100.00
49451;BME280;35336;48.400;10.886;2024-03-02T00:24:52;95177.13;;;5.39;100.00
49451;BME280;35336;48.400;10.886;2024-03-02T00:25:07;95188.34;;;5.41;100.00
49451;BME280;35336;48.400;10.886;2024-03-02T00:25:25;95193.22;;;5.44;100.00
49451;BME280;35336;48.400;10.886;2024-03-02T00:25:44;95181.84;;;5.44;100.00
49451;BME280;35336;48.400;10.886;2024-03-02T00:26:00;95186.50;;;5.41;100.00
49451;BME280;35336;48.400;10.886;2024-03-02T00:26:15;95178.13;;;5.38;100.00
49451;BME280;35336;48.400;10.886;2024-03-02T00:26:33;95186.31;;;5.43;100.00
49451;BME280;35336;48.400;10.886;2024-03-02T00:26:48;95183.69;;;5.43;100.00
49451;BME280;35336;48.400;10.886;2024-03-02T00:27:04;95187.13;;;5.44;100.00
49451;BME280;35336;48.400;10.886;2024-03-02T00:27:21;95182.66;;;5.44;100.00
49451;BME280;35336;48.400;10.886;2024-03-02T00:27:37;95183.25;;;5.39;100.00
49451;BME280;35336;48.400;10.886;2024-03-02T00:27:52;95180.59;;;5.39;100.00
49451;BME280;35336;48.400;10.886;2024-03-02T00:28:36;95185.06;;;5.39;100.00
49451;BME280;35336;48.400;10.886;2024-03-02T00:28:54;95189.34;;;5.40;100.00
49451;BME280;35336;48.400;10.886;2024-03-02T00:29:10;95158.53;;;5.25;100.00
49451;BME280;35336;48.400;10.886;2024-03-02T00:29:27;95185.50;;;5.43;100.00
49451;BME280;35336;48.400;10.886;2024-03-02T00:29:44;95182.22;;;5.40;100.00
49451;BME280;35336;48.400;10.886;2024-03-02T00:30:01;95179.97;;;5.37;100.00
49451;BME280;35336;48.400;10.886;2024-03-02T00:31:13;95162.38;;;5.23;100.00
49451;BME280;35336;48.400;10.886;2024-03-02T00:31:28;95192.19;;;5.38;100.00
49451;BME280;35336;48.400;10.886;2024-03-02T00:31:44;95191.97;;;5.40;100.00
49451;BME280;35336;48.400;10.886;2024-03-02T00:32:01;95188.53;;;5.39;100.00
49451;BME280;35336;48.400;10.886;2024-03-02T00:32:16;95183.41;;;5.38;100.00
49451;BME280;35336;48.400;10.886;2024-03-02T00:32:34;95186.69;;;5.40;100.00
49451;BME280;35336;48.400;10.886;2024-03-02T00:32:50;95185.88;;;5.39;100.00
49451;BME280;35336;48.400;10.886;2024-03-02T00:33:06;95186.06;;;5.38;100.00
49451;BME280;35336;48.400;10.886;2024-03-02T00:33:22;95187.69;;;5.39;100.00
49451;BME280;35336;48.400;10.886;2024-03-02T00:33:41;95185.88;;;5.39;100.00
49451;BME280;35336;48.400;10.886;2024-03-02T00:33:59;95188.34;;;5.41;100.00
49451;BME280;35336;48.400;10.886;2024-03-02T00:34:19;95189.53;;;5.38;100.00
49451;BME280;35336;48.400;10.886;2024-03-02T00:34:35;95185.63;;;5.34;100.00
49451;BME280;35336;48.400;10.886;2024-03-02T00:34:50;95188.91;;;5.36;100.00
49451;BME280;35336;48.400;10.886;2024-03-02T00:35:05;95186.91;;;5.38;100.00
49451;BME280;35336;48.400;10.886;2024-03-02T00:35:22;95194.81;;;5.38;100.00
49451;BME280;35336;48.400;10.886;2024-03-02T00:35:38;95191.97;;;5.40;100.00
49451;BME280;35336;48.400;10.886;2024-03-02T00:35:53;95183.41;;;5.38;100.00
49451;BME280;35336;48.400;10.886;2024-03-02T00:36:14;95194.63;;;5.40;100.00
49451;BME280;35336;48.400;10.886;2024-03-02T00:36:30;95189.53;;;5.38;100.00
49451;BME280;35336;48.400;10.886;2024-03-02T00:36:45;95197.28;;;5.40;100.00
49451;BME280;35336;48.400;10.886;2024-03-02T00:37:01;95194.00;;;5.38;100.00
49451;BME280;35336;48.400;10.886;2024-03-02T00:37:16;95180.34;;;5.34;100.00
49451;BME280;35336;48.400;10.886;2024-03-02T00:37:31;95190.91;;;5.34;100.00
49451;BME280;35336;48.400;10.886;2024-03-02T00:37:46;95195.63;;;5.39;100.00
49451;BME280;35336;48.400;10.886;2024-03-02T00:38:05;95202.56;;;5.40;100.00
49451;BME280;35336;48.400;10.886;2024-03-02T00:38:21;95187.06;;;5.37;100.00
49451;BME280;35336;48.400;10.886;2024-03-02T00:38:49;95180.31;;;5.28;100.00
49451;BME280;35336;48.400;10.886;2024-03-02T00:39:05;95191.19;;;5.39;100.00
49451;BME280;35336;48.400;10.886;2024-03-02T00:39:20;95196.47;;;5.39;100.00
49451;BME280;35336;48.400;10.886;2024-03-02T00:39:38;95190.31;;;5.32;100.00
49451;BME280;35336;48.400;10.886;2024-03-02T00:39:53;95195.19;;;5.35;100.00
49451;BME280;35336;48.400;10.886;2024-03-02T00:40:12;95194.19;;;5.36;100.00
49451;BME280;35336;48.400;10.886;2024-03-02T00:40:29;95200.13;;;5.38;100.00
49451;BME280;35336;48.400;10.886;2024-03-02T00:40:45;95197.63;;;5.37;100.00
49451;BME280;35336;48.400;10.886;2024-03-02T00:41:04;95199.09;;;5.39;100.00
49451;BME280;35336;48.400;10.886;2024-03-02T00:41:32;95201.75;;;5.39;100.00
49451;BME280;35336;48.400;10.886;2024-03-02T00:41:47;95190.16;;;5.40;100.00
49451;BME280;35336;48.400;10.886;2024-03-02T00:42:03;95200.72;;;5.40;100.00
49451;BME280;35336;48.400;10.886;2024-03-02T00:42:18;95186.47;;;5.35;100.00
49451;BME280;35336;48.400;10.886;2024-03-02T00:42:33;95192.19;;;5.38;100.00
49451;BME280;35336;48.400;10.886;2024-03-02T00:42:48;95191.91;;;5.33;100.00
49451;BME280;35336;48.400;10.886;2024-03-02T00:43:04;95188.09;;;5.36;100.00
49451;BME280;35336;48.400;10.886;2024-03-02T00:44:12;95194.81;;;5.38;100.00
49451;BME280;35336;48.400;10.886;2024-03-02T00:44:27;95200.13;;;5.38;100.00
49451;BME280;35336;48.400;10.886;2024-03-02T00:44:45;95171.50;;;5.20;100.00
49451;BME280;35336;48.400;10.886;2024-03-02T00:45:00;95174.97;;;5.21;100.00
49451;BME280;35336;48.400;10.886;2024-03-02T00:45:17;95193.19;;;5.37;100.00
49451;BME280;35336;48.400;10.886;2024-03-02T00:45:33;95196.84;;;5.36;100.00
49451;BME280;35336;48.400;10.886;2024-03-02T00:45:48;95201.91;;;5.38;100.00
49451;BME280;35336;48.400;10.886;2024-03-02T00:46:03;95193.19;;;5.37;100.00
49451;BME280;35336;48.400;10.886;2024-03-02T00:46:19;95196.03;;;5.36;100.00
49451;BME280;35336;48.400;10.886;2024-03-02T00:46:36;95198.47;;;5.37;100.00
49451;BME280;35336;48.400;10.886;2024-03-02T00:46:52;95197.63;;;5.37;100.00
49451;BME280;35336;48.400;10.886;2024-03-02T00:47:08;95195.84;;;5.37;100.00
49451;BME280;35336;48.400;10.886;2024-03-02T00:47:23;95191.91;;;5.33;100.00
49451;BME280;35336;48.400;10.886;2024-03-02T00:47:39;95201.31;;;5.36;100.00
49451;BME280;35336;48.400;10.886;2024-03-02T00:47:54;95198.47;;;5.37;100.00
49451;BME280;35336;48.400;10.886;2024-03-02T00:48:09;95193.38;;;5.36;100.00
49451;BME280;35336;48.400;10.886;2024-03-02T00:48:24;95202.94;;;5.37;100.00
49451;BME280;35336;48.400;10.886;2024-03-02T00:49:23;95199.47;;;5.36;100.00
49451;BME280;35336;48.400;10.886;2024-03-02T00:49:39;95191.91;;;5.33;100.00
49451;BME280;35336;48.400;10.886;2024-03-02T00:49:54;95197.47;;;5.38;100.00
49451;BME280;35336;48.400;10.886;2024-03-02T00:50:09;95188.28;;;5.34;100.00
49451;BME280;35336;48.400;10.886;2024-03-02T00:50:25;95201.75;;;5.39;100.00
49451;BME280;35336;48.400;10.886;2024-03-02T00:50:40;95194.00;;;5.38;100.00
49451;BME280;35336;48.400;10.886;2024-03-02T00:50:55;95195.84;;;5.37;100.00
49451;BME280;35336;48.400;10.886;2024-03-02T00:51:11;95200.28;;;5.37;100.00
49451;BME280;35336;48.400;10.886;2024-03-02T00:51:28;95165.78;;;5.17;100.00
49451;BME280;35336;48.400;10.886;2024-03-02T00:51:46;95191.56;;;5.36;100.00
49451;BME280;35336;48.400;10.886;2024-03-02T00:52:02;95165.41;;;5.20;100.00
49451;BME280;35336;48.400;10.886;2024-03-02T00:52:17;95191.56;;;5.36;100.00
49451;BME280;35336;48.400;10.886;2024-03-02T00:52:32;95192.19;;;5.38;100.00
49451;BME280;35336;48.400;10.886;2024-03-02T00:52:48;95198.47;;;5.37;100.00
49451;BME280;35336;48.400;10.886;2024-03-02T00:53:03;95188.69;;;5.38;100.00
49451;BME280;35336;48.400;10.886;2024-03-02T00:53:22;95190.75;;;5.36;100.00
49451;BME280;35336;48.400;10.886;2024-03-02T00:53:38;95194.56;;;5.33;100.00
49451;BME280;35336;48.400;10.886;2024-03-02T00:53:54;95196.84;;;5.36;100.00
49451;BME280;35336;48.400;10.886;2024-03-02T00:54:10;95196.84;;;5.36;100.00
49451;BME280;35336;48.400;10.886;2024-03-02T00:54:26;95191.56;;;5.36;100.00
49451;BME280;35336;48.400;10.886;2024-03-02T00:54:41;95185.41;;;5.29;100.00
49451;BME280;35336;48.400;10.886;2024-03-02T00:54:57;95196.63;;;5.38;100.00
49451;BME280;35336;48.400;10.886;2024-03-02T00:55:12;95187.66;;;5.32;100.00
49451;BME280;35336;48.400;10.886;2024-03-02T00:55:27;95194.00;;;5.38;100.00
49451;BME280;35336;48.400;10.886;2024-03-02T00:55:43;95196.63;;;5.38;100.00
49451;BME280;35336;48.400;10.886;2024-03-02T00:55:59;95195.84;;;5.37;100.00
49451;BME280;35336;48.400;10.886;2024-03-02T00:56:14;95191.34;;;5.38;100.00
49451;BME280;35336;48.400;10.886;2024-03-02T00:56:30;95194.81;;;5.38;100.00
49451;BME280;35336;48.400;10.886;2024-03-02T00:56:49;95173.56;;;5.25;100.00
49451;BME280;35336;48.400;10.886;2024-03-02T00:57:05;95193.81;;;5.39;100.00
49451;BME280;35336;48.400;10.886;2024-03-02T00:57:20;95200.13;;;5.38;100.00
49451;BME280;35336;48.400;10.886;2024-03-02T00:57:38;95188.28;;;5.34;100.00
49451;BME280;35336;48.400;10.886;2024-03-02T00:57:53;95190.34;;;5.39;100.00
49451;BME280;35336;48.400;10.886;2024-03-02T00:58:08;95186.91;;;5.38;100.00
49451;BME280;35336;48.400;10.886;2024-03-02T00:58:24;95194.81;;;5.38;100.00
49451;BME280;35336;48.400;10.886;2024-03-02T00:58:39;95167.84;;;5.21;100.00
49451;BME280;35336;48.400;10.886;2024-03-02T00:58:54;95195.00;;;5.37;100.00
49451;BME280;35336;48.400;10.886;2024-03-02T00:59:10;95180.91;;;5.30;100.00
49451;BME280;35336;48.400;10.886;2024-03-02T00:59:26;95182.38;;;5.32;100.00
49451;BME280;35336;48.400;10.886;2024-03-02T00:59:41;95186.25;;;5.36;100.00
49451;BME280;35336;48.400;10.886;2024-03-02T00:59:56;95191.56;;;5.36;100.00
49451;BME280;35336;48.400;10.886;2024-03-02T01:00:15;95186.47;;;5.35;100.00
49451;BME280;35336;48.400;10.886;2024-03-02T01:00:30;95196.84;;;5.36;100.00
49451;BME280;35336;48.400;10.886;2024-03-02T01:00:48;95188.91;;;5.36;100.00
49451;BME280;35336;48.400;10.886;2024-03-02T01:01:03;95169.88;;;5.19;100.00
49451;BME280;35336;48.400;10.886;2024-03-02T01:01:19;95188.28;;;5.34;100.00
49451;BME280;35336;48.400;10.886;2024-03-02T01:01:34;95179.47;;;5.27;100.00
49451;BME280;35336;48.400;10.886;2024-03-02T01:01:50;95191.31;;;5.31;100.00
49451;BME280;35336;48.400;10.886;2024-03-02T01:02:05;95189.28;;;5.33;100.00
49451;BME280;35336;48.400;10.886;2024-03-02T01:02:20;95158.88;;;5.16;100.00
49451;BME280;35336;48.400;10.886;2024-03-02T01:02:35;95188.28;;;5.34;100.00
49451;BME280;35336;48.400;10.886;2024-03-02T01:02:53;95195.19;;;5.35;100.00
49451;BME280;35336;48.400;10.886;2024-03-02T01:03:08;95169.69;;;5.21;100.00
49451;BME280;35336;48.400;10.886;2024-03-02T01:03:25;95197.03;;;5.35;100.00
49451;BME280;35336;48.400;10.886;2024-03-02T01:03:41;95169.25;;;5.17;100.00
49451;BME280;35336;48.400;10.886;2024-03-02T01:03:56;95196.19;;;5.34;100.00
49451;BME280;35336;48.400;10.886;2024-03-02T01:04:11;95187.41;;;5.27;100.00
49451;BME280;35336;48.400;10.886;2024-03-02T01:04:27;95197.22;;;5.33;100.00
49451;BME280;35336;48.400;10.886;2024-03-02T01:04:44;95180.63;;;5.18;100.00
49451;BME280;35336;48.400;10.886;2024-03-02T01:04:59;95192.97;;;5.32;100.00
49451;BME280;35336;48.400;10.886;2024-03-02T01:05:15;95193.75;;;5.33;100.00
49451;BME280;35336;48.400;10.886;2024-03-02T01:05:30;95188.66;;;5.31;100.00
49451;BME280;35336;48.400;10.886;2024-03-02T01:05:45;95197.22;;;5.33;100.00
49451;BME280;35336;48.400;10.886;2024-03-02T01:06:00;95192.75;;;5.34;100.00
49451;BME280;35336;48.400;10.886;2024-03-02T01:06:16;95188.25;;;5.28;100.00
49451;BME280;35336;48.400;10.886;2024-03-02T01:06:31;95182.53;;;5.24;100.00
49451;BME280;35336;48.400;10.886;2024-03-02T01:06:47;95201.88;;;5.31;100.00
49451;BME280;35336;48.400;10.886;2024-03-02T01:07:02;95187.41;;;5.27;100.00
49451;BME280;35336;48.400;10.886;2024-03-02T01:07:17;95201.25;;;5.29;100.00
49451;BME280;35336;48.400;10.886;2024-03-02T01:07:32;95198.59;;;5.29;100.00
49451;BME280;35336;48.400;10.886;2024-03-02T01:07:51;95198.59;;;5.29;100.00
49451;BME280;35336;48.400;10.886;2024-03-02T01:08:06;95200.06;;;5.32;100.00
49451;BME280;35336;48.400;10.886;2024-03-02T01:08:21;95196.78;;;5.30;100.00
49451;BME280;35336;48.400;10.886;2024-03-02T01:08:53;95198.41;;;5.31;100.00
49451;BME280;35336;48.400;10.886;2024-03-02T01:09:09;95190.47;;;5.31;100.00
49451;BME280;35336;48.400;10.886;2024-03-02T01:09:24;95176.38;;;5.17;100.00
49451;BME280;35336;48.400;10.886;2024-03-02T01:09:39;95178.19;;;5.16;100.00
49451;BME280;35336;48.400;10.886;2024-03-02T01:09:55;95191.06;;;5.26;100.00
49451;BME280;35336;48.400;10.886;2024-03-02T01:10:10;95191.88;;;5.27;100.00
49451;BME280;35336;48.400;10.886;2024-03-02T01:10:25;95199.25;;;5.31;100.00
49451;BME280;35336;48.400;10.886;2024-03-02T01:10:40;95185.53;;;5.21;100.00
49451;BME280;35336;48.400;10.886;2024-03-02T01:10:56;95203.69;;;5.31;100.00
49451;BME280;35336;48.400;10.886;2024-03-02T01:11:11;95175.72;;;5.15;100.00
49451;BME280;35336;48.400;10.886;2024-03-02T01:11:26;95202.69;;;5.32;100.00
49451;BME280;35336;48.400;10.886;2024-03-02T01:11:42;95191.50;;;5.30;100.00
49451;BME280;35336;48.400;10.886;2024-03-02T01:11:57;95197.59;;;5.30;100.00
49451;BME280;35336;48.400;10.886;2024-03-02T01:12:12;95181.66;;;5.17;100.00
49451;BME280;35336;48.400;10.886;2024-03-02T01:12:28;95201.88;;;5.31;100.00
49451;BME280;35336;48.400;10.886;2024-03-02T01:12:43;95193.97;;;5.31;100.00
49451;BME280;35336;48.400;10.886;2024-03-02T01:12:58;95203.69;;;5.31;100.00
49451;BME280;35336;48.400;10.886;2024-03-02T01:13:13;95166.53;;;5.11;100.00
49451;BME280;35336;48.400;10.886;2024-03-02T01:13:29;95176.38;;;5.17;100.00
49451;BME280;35336;48.400;10.886;2024-03-02T01:13:45;95178.41;;;5.21;100.00
49451;BME280;35336;48.400;10.886;2024-03-02T01:14:00;95201.88;;;5.31;100.00
49451;BME280;35336;48.400;10.886;2024-03-02T01:14:15;95193.97;;;5.31;100.00
49451;BME280;35336;48.400;10.886;2024-03-02T01:14:30;95199.25;;;5.31;100.00
49451;BME280;35336;48.400;10.886;2024-03-02T01:14:46;95188.66;;;5.31;100.00
49451;BME280;35336;48.400;10.886;2024-03-02T01:15:01;95192.06;;;5.25;100.00
49451;BME280;35336;48.400;10.886;2024-03-02T01:15:16;95201.88;;;5.31;100.00
49451;BME280;35336;48.400;10.886;2024-03-02T01:15:35;95164.53;;;5.13;100.00
49451;BME280;35336;48.400;10.886;2024-03-02T01:15:50;95200.44;;;5.29;100.00
49451;BME280;35336;48.400;10.886;2024-03-02T01:16:06;95183.91;;;5.20;100.00
49451;BME280;35336;48.400;10.886;2024-03-02T01:16:26;95198.59;;;5.29;100.00
49451;BME280;35336;48.400;10.886;2024-03-02T01:16:41;95205.75;;;5.29;100.00
49451;BME280;35336;48.400;10.886;2024-03-02T01:16:56;95162.03;;;5.04;100.00
49451;BME280;35336;48.400;10.886;2024-03-02T01:17:14;95194.31;;;5.28;100.00
49451;BME280;35336;48.400;10.886;2024-03-02T01:17:29;95201.25;;;5.29;100.00
49451;BME280;35336;48.400;10.886;2024-03-02T01:17:44;95201.47;;;5.28;100.00
49451;BME280;35336;48.400;10.886;2024-03-02T01:17:59;95205.75;;;5.29;100.00
49451;BME280;35336;48.400;10.886;2024-03-02T01:18:17;95197.97;;;5.27;100.00
49451;BME280;35336;48.400;10.886;2024-03-02T01:18:35;95200.81;;;5.25;100.00
49451;BME280;35336;48.400;10.886;2024-03-02T01:18:50;95199.63;;;5.28;100.00
49451;BME280;35336;48.400;10.886;2024-03-02T01:19:05;95203.91;;;5.29;100.00
49451;BME280;35336;48.400;10.886;2024-03-02T01:19:21;95200.63;;;5.27;100.00
49451;BME280;35336;48.400;10.886;2024-03-02T01:19:38;95200.63;;;5.27;100.00
49451;BME280;35336;48.400;10.886;2024-03-02T01:19:53;95193.91;;;5.24;100.00
49451;BME280;35336;48.400;10.886;2024-03-02T01:20:12;95189.81;;;5.22;100.00
49451;BME280;35336;48.400;10.886;2024-03-02T01:20:27;95198.81;;;5.28;100.00
49451;BME280;35336;48.400;10.886;2024-03-02T01:20:42;95197.16;;;5.27;100.00
49451;BME280;35336;48.400;10.886;2024-03-02T01:20:57;95199.81;;;5.27;100.00
49451;BME280;35336;48.400;10.886;2024-03-02T01:21:13;95193.47;;;5.21;100.00
49451;BME280;35336;48.400;10.886;2024-03-02T01:21:28;95198.97;;;5.26;100.00
49451;BME280;35336;48.400;10.886;2024-03-02T01:21:43;95198.38;;;5.24;100.00
49451;BME280;35336;48.400;10.886;2024-03-02T01:21:59;95197.34;;;5.25;100.00
49451;BME280;35336;48.400;10.886;2024-03-02T01:22:14;95197.34;;;5.25;100.00
49451;BME280;35336;48.400;10.886;2024-03-02T01:22:29;95178.75;;;5.12;100.00
49451;BME280;35336;48.400;10.886;2024-03-02T01:22:44;95184.91;;;5.19;100.00
49451;BME280;35336;48.400;10.886;2024-03-02T01:23:02;95197.97;;;5.27;100.00
49451;BME280;35336;48.400;10.886;2024-03-02T01:23:22;95197.97;;;5.27;100.00
49451;BME280;35336;48.400;10.886;2024-03-02T01:23:37;95194.31;;;5.28;100.00
49451;BME280;35336;48.400;10.886;2024-03-02T01:23:52;95199.41;;;5.30;100.00
49451;BME280;35336;48.400;10.886;2024-03-02T01:24:08;95190.47;;;5.31;100.00
49451;BME280;35336;48.400;10.886;2024-03-02T01:24:25;95193.13;;;5.31;100.00
49451;BME280;35336;48.400;10.886;2024-03-02T01:24:40;95199.25;;;5.31;100.00
49451;BME280;35336;48.400;10.886;2024-03-02T01:24:55;95192.97;;;5.32;100.00
49451;BME280;35336;48.400;10.886;2024-03-02T01:25:11;95191.13;;;5.33;100.00
49451;BME280;35336;48.400;10.886;2024-03-02T01:25:26;95189.28;;;5.33;100.00
49451;BME280;35336;48.400;10.886;2024-03-02T01:25:41;95196.19;;;5.34;100.00
49451;BME280;35336;48.400;10.886;2024-03-02T01:25:56;95192.75;;;5.34;100.00
49451;BME280;35336;48.400;10.886;2024-03-02T01:26:12;95191.91;;;5.33;100.00
49451;BME280;35336;48.400;10.886;2024-03-02T01:26:27;95196.41;;;5.33;100.00
49451;BME280;35336;48.400;10.886;2024-03-02T01:26:42;95187.47;;;5.34;100.00
49451;BME280;35336;48.400;10.886;2024-03-02T01:26:57;95193.97;;;5.31;100.00
49451;BME280;35336;48.400;10.886;2024-03-02T01:27:18;95191.31;;;5.31;100.00
49451;BME280;35336;48.400;10.886;2024-03-02T01:27:33;95191.91;;;5.33;100.00
49451;BME280;35336;48.400;10.886;2024-03-02T01:27:50;95167.59;;;5.16;100.00
49451;BME280;35336;48.400;10.886;2024-03-02T01:28:05;95191.31;;;5.31;100.00
49451;BME280;35336;48.400;10.886;2024-03-02T01:28:21;95191.13;;;5.33;100.00
49451;BME280;35336;48.400;10.886;2024-03-02T01:28:36;95186.63;;;5.33;100.00
49451;BME280;35336;48.400;10.886;2024-03-02T01:28:51;95197.22;;;5.33;100.00
49451;BME280;35336;48.400;10.886;2024-03-02T01:29:06;95155.97;;;5.11;100.00
49451;BME280;35336;48.400;10.886;2024-03-02T01:29:22;95191.13;;;5.33;100.00